sensor_id;sensor_type;location;lat;lon;timestamp;pressure;altitude;pressure_sealevel;temperature;humidity
55820;BME280;41747;45.002;39.032;2022-08-19T00:00:19;100265.17;;;22.65;81.23
55820;BME280;41747;45.002;39.032;2022-08-19T00:02:48;100268.53;;;22.67;81.18
55820;BME280;41747;45.002;39.032;2022-08-19T00:05:18;100267.98;;;22.67;81.12
55820;BME280;41747;45.002;39.032;2022-08-19T00:07:49;100274.94;;;22.70;81.15
55820;BME280;41747;45.002;39.032;2022-08-19T00:10:19;100272.41;;;22.68;81.39
55820;BME280;41747;45.002;39.032;2022-08-19T00:12:48;100268.59;;;22.69;81.55
55820;BME280;41747;45.002;39.032;2022-08-19T00:15:20;100267.98;;;22.67;81.62
55820;BME280;41747;45.002;39.032;2022-08-19T00:17:50;100279.02;;;22.67;81.74
55820;BME280;41747;45.002;39.032;2022-08-19T00:20:20;100266.77;;;22.63;81.82
55820;BME280;41747;45.002;39.032;2022-08-19T00:22:50;100268.16;;;22.63;81.88
55820;BME280;41747;45.002;39.032;2022-08-19T00:25:20;100265.17;;;22.65;81.75
55820;BME280;41747;45.002;39.032;2022-08-19T00:27:49;100265.62;;;22.62;81.68
55820;BME280;41747;45.002;39.032;2022-08-19T00:30:19;100268.93;;;22.61;81.68
55820;BME280;41747;45.002;39.032;2022-08-19T00:32:48;100275.23;;;22.59;81.65
55820;BME280;41747;45.002;39.032;2022-08-19T00:35:17;100272.92;;;22.56;81.56
55820;BME280;41747;45.002;39.032;2022-08-19T00:37:48;100272.87;;;22.53;81.53
55820;BME280;41747;45.002;39.032;2022-08-19T00:40:18;100274.16;;;22.51;81.44
55820;BME280;41747;45.002;39.032;2022-08-19T00:42:48;100264.45;;;22.48;81.46
55820;BME280;41747;45.002;39.032;2022-08-19T00:45:22;100272.12;;;22.46;81.49
55820;BME280;41747;45.002;39.032;2022-08-19T00:47:51;100271.19;;;22.43;81.58
55820;BME280;41747;45.002;39.032;2022-08-19T00:50:21;100273.73;;;22.45;81.59
55820;BME280;41747;45.002;39.032;2022-08-19T00:52:51;100276.16;;;22.44;81.60
55820;BME280;41747;45.002;39.032;2022-08-19T00:55:23;100269.44;;;22.39;81.71
55820;BME280;41747;45.002;39.032;2022-08-19T00:58:13;100271.81;;;22.36;81.88
55820;BME280;41747;45.002;39.032;2022-08-19T01:00:35;100285.32;;;22.35;82.08
55820;BME280;41747;45.002;39.032;2022-08-19T01:03:10;100284.63;;;22.30;82.28
55820;BME280;41747;45.002;39.032;2022-08-19T01:05:40;100278.34;;;22.23;82.55
55820;BME280;41747;45.002;39.032;2022-08-19T01:08:10;100278.48;;;22.19;82.47
55820;BME280;41747;45.002;39.032;2022-08-19T01:10:49;100279.73;;;22.14;82.30
55820;BME280;41747;45.002;39.032;2022-08-19T01:13:17;100277.66;;;22.09;82.63
55820;BME280;41747;45.002;39.032;2022-08-19T01:15:55;100281.89;;;22.03;82.83
55820;BME280;41747;45.002;39.032;2022-08-19T01:18:21;100282.89;;;21.99;82.99
55820;BME280;41747;45.002;39.032;2022-08-19T01:20:52;100281.13;;;21.95;83.03
55820;BME280;41747;45.002;39.032;2022-08-19T01:23:22;100286.03;;;21.93;83.13
55820;BME280;41747;45.002;39.032;2022-08-19T01:25:53;100279.43;;;21.94;83.25
55820;BME280;41747;45.002;39.032;2022-08-19T01:28:26;100285.55;;;21.96;83.45
55820;BME280;41747;45.002;39.032;2022-08-19T01:30:56;100285.27;;;21.95;83.85
55820;BME280;41747;45.002;39.032;2022-08-19T01:33:25;100277.83;;;21.96;84.16
55820;BME280;41747;45.002;39.032;2022-08-19T01:36:43;100275.84;;;21.94;84.20
55820;BME280;41747;45.002;39.032;2022-08-19T01:38:27;100272.70;;;21.90;84.12
55820;BME280;41747;45.002;39.032;2022-08-19T01:40:58;100267.03;;;21.85;84.07
55820;BME280;41747;45.002;39.032;2022-08-19T01:43:27;100268.56;;;21.81;84.13
55820;BME280;41747;45.002;39.032;2022-08-19T01:45:57;100267.34;;;21.77;84.22
55820;BME280;41747;45.002;39.032;2022-08-19T01:48:27;100270.33;;;21.75;84.39
55820;BME280;41747;45.002;39.032;2022-08-19T01:50:59;100267.73;;;21.71;84.58
55820;BME280;41747;45.002;39.032;2022-08-19T01:53:29;100273.24;;;21.71;84.76
55820;BME280;41747;45.002;39.032;2022-08-19T01:55:58;100274.84;;;21.70;84.89
55820;BME280;41747;45.002;39.032;2022-08-19T01:58:39;100277.30;;;21.69;84.95
55820;BME280;41747;45.002;39.032;2022-08-19T02:01:05;100275.55;;;21.65;85.07
55820;BME280;41747;45.002;39.032;2022-08-19T02:03:35;100280.98;;;21.63;85.22
55820;BME280;41747;45.002;39.032;2022-08-19T02:06:04;100272.17;;;21.63;85.29
55820;BME280;41747;45.002;39.032;2022-08-19T02:08:36;100277.69;;;21.63;85.35
55820;BME280;41747;45.002;39.032;2022-08-19T02:11:07;100282.04;;;21.61;85.26
55820;BME280;41747;45.002;39.032;2022-08-19T02:13:37;100286.94;;;21.59;85.17
55820;BME280;41747;45.002;39.032;2022-08-19T02:16:06;100291.84;;;21.57;85.13
55820;BME280;41747;45.002;39.032;2022-08-19T02:18:36;100285.17;;;21.56;85.10
55820;BME280;41747;45.002;39.032;2022-08-19T02:21:05;100286.77;;;21.54;85.13
55820;BME280;41747;45.002;39.032;2022-08-19T02:23:35;100291.13;;;21.53;85.12
55820;BME280;41747;45.002;39.032;2022-08-19T02:26:04;100280.97;;;21.53;85.07
55820;BME280;41747;45.002;39.032;2022-08-19T02:28:35;100291.52;;;21.56;85.05
55820;BME280;41747;45.002;39.032;2022-08-19T02:31:16;100294.59;;;21.57;85.01
55820;BME280;41747;45.002;39.032;2022-08-19T02:33:40;100293.28;;;21.60;85.13
55820;BME280;41747;45.002;39.032;2022-08-19T02:36:11;100293.89;;;21.62;85.37
55820;BME280;41747;45.002;39.032;2022-08-19T02:38:41;100301.33;;;21.61;85.58
55820;BME280;41747;45.002;39.032;2022-08-19T02:41:20;100303.31;;;21.64;85.69
55820;BME280;41747;45.002;39.032;2022-08-19T02:43:49;100300.78;;;21.62;85.73
55820;BME280;41747;45.002;39.032;2022-08-19T02:46:29;100309.81;;;21.60;85.76
55820;BME280;41747;45.002;39.032;2022-08-19T02:48:57;100306.22;;;21.59;85.87
55820;BME280;41747;45.002;39.032;2022-08-19T02:51:37;100304.02;;;21.59;85.86
55820;BME280;41747;45.002;39.032;2022-08-19T02:54:01;100304.02;;;21.59;85.79
55820;BME280;41747;45.002;39.032;2022-08-19T02:56:33;100302.31;;;21.58;85.68
55820;BME280;41747;45.002;39.032;2022-08-19T02:59:03;100300.39;;;21.58;85.59
55820;BME280;41747;45.002;39.032;2022-08-19T03:01:34;100310.03;;;21.58;85.53
55820;BME280;41747;45.002;39.032;2022-08-19T03:04:05;100309.81;;;21.60;85.49
55820;BME280;41747;45.002;39.032;2022-08-19T03:06:36;100304.69;;;21.64;85.41
55820;BME280;41747;45.002;39.032;2022-08-19T03:09:06;100309.66;;;21.64;85.31
55820;BME280;41747;45.002;39.032;2022-08-19T03:11:36;100310.27;;;21.66;85.21
55820;BME280;41747;45.002;39.032;2022-08-19T03:14:07;100311.42;;;21.68;85.12
55820;BME280;41747;45.002;39.032;2022-08-19T03:16:45;100312.90;;;21.70;84.95
55820;BME280;41747;45.002;39.032;2022-08-19T03:19:16;100313.36;;;21.76;84.75
55820;BME280;41747;45.002;39.032;2022-08-19T03:21:46;100327.52;;;21.80;84.55
55820;BME280;41747;45.002;39.032;2022-08-19T03:24:16;100330.12;;;21.84;84.35
55820;BME280;41747;45.002;39.032;2022-08-19T03:26:49;100324.67;;;21.87;84.14
55820;BME280;41747;45.002;39.032;2022-08-19T03:29:20;100313.43;;;21.88;84.01
55820;BME280;41747;45.002;39.032;2022-08-19T03:31:49;100318.40;;;21.89;84.06
55820;BME280;41747;45.002;39.032;2022-08-19T03:34:22;100315.58;;;21.86;84.17
55820;BME280;41747;45.002;39.032;2022-08-19T03:36:55;100323.08;;;21.88;84.19
55820;BME280;41747;45.002;39.032;2022-08-19T03:39:25;100318.88;;;21.95;84.03
55820;BME280;41747;45.002;39.032;2022-08-19T03:41:55;100317.73;;;22.03;83.83
55820;BME280;41747;45.002;39.032;2022-08-19T03:44:26;100317.34;;;22.08;83.56
55820;BME280;41747;45.002;39.032;2022-08-19T03:46:57;100320.61;;;22.17;83.33
55820;BME280;41747;45.002;39.032;2022-08-19T03:49:29;100330.48;;;22.25;83.09
55820;BME280;41747;45.002;39.032;2022-08-19T03:51:59;100330.61;;;22.27;82.99
55820;BME280;41747;45.002;39.032;2022-08-19T03:54:29;100337.62;;;22.32;82.81
55820;BME280;41747;45.002;39.032;2022-08-19T03:56:58;100331.72;;;22.38;82.57
55820;BME280;41747;45.002;39.032;2022-08-19T03:59:31;100333.34;;;22.46;82.33
55820;BME280;41747;45.002;39.032;2022-08-19T04:02:09;100338.14;;;22.60;81.86
55820;BME280;41747;45.002;39.032;2022-08-19T04:04:42;100335.96;;;22.71;81.34
55820;BME280;41747;45.002;39.032;2022-08-19T04:07:11;100340.48;;;22.74;81.07
55820;BME280;41747;45.002;39.032;2022-08-19T04:09:42;100332.02;;;22.78;80.71
55820;BME280;41747;45.002;39.032;2022-08-19T04:12:11;100350.11;;;22.84;80.48
55820;BME280;41747;45.002;39.032;2022-08-19T04:14:41;100357.09;;;22.98;80.01
55820;BME280;41747;45.002;39.032;2022-08-19T04:17:10;100365.93;;;23.07;79.58
55820;BME280;41747;45.002;39.032;2022-08-19T04:19:41;100364.77;;;23.26;78.98
55820;BME280;41747;45.002;39.032;2022-08-19T04:22:11;100365.51;;;23.57;78.00
55820;BME280;41747;45.002;39.032;2022-08-19T04:24:40;100360.44;;;24.25;76.13
55820;BME280;41747;45.002;39.032;2022-08-19T04:27:10;100359.49;;;25.32;73.05
55820;BME280;41747;45.002;39.032;2022-08-19T04:29:39;100345.27;;;26.40;69.56
55820;BME280;41747;45.002;39.032;2022-08-19T04:32:09;100340.51;;;27.44;66.67
55820;BME280;41747;45.002;39.032;2022-08-19T04:34:38;100327.95;;;28.27;63.81
55820;BME280;41747;45.002;39.032;2022-08-19T04:37:08;100332.05;;;28.97;61.87
55820;BME280;41747;45.002;39.032;2022-08-19T04:39:39;100333.48;;;29.64;59.56
55820;BME280;41747;45.002;39.032;2022-08-19T04:42:26;100339.44;;;30.36;57.25
55820;BME280;41747;45.002;39.032;2022-08-19T04:45:11;100344.88;;;30.66;55.02
55820;BME280;41747;45.002;39.032;2022-08-19T04:47:43;100347.82;;;30.38;54.72
55820;BME280;41747;45.002;39.032;2022-08-19T04:50:12;100346.78;;;30.76;53.62
55820;BME280;41747;45.002;39.032;2022-08-19T04:52:43;100356.05;;;31.53;52.03
55820;BME280;41747;45.002;39.032;2022-08-19T04:55:13;100358.34;;;32.02;50.13
55820;BME280;41747;45.002;39.032;2022-08-19T04:57:42;100355.44;;;31.85;49.74
55820;BME280;41747;45.002;39.032;2022-08-19T05:00:12;100354.95;;;31.76;49.78
55820;BME280;41747;45.002;39.032;2022-08-19T05:02:41;100342.20;;;32.63;48.52
55820;BME280;41747;45.002;39.032;2022-08-19T05:05:11;100341.44;;;32.96;47.10
55820;BME280;41747;45.002;39.032;2022-08-19T05:07:40;100343.03;;;32.83;46.78
55820;BME280;41747;45.002;39.032;2022-08-19T05:10:10;100338.53;;;32.85;46.44
55820;BME280;41747;45.002;39.032;2022-08-19T05:12:40;100337.47;;;32.99;46.24
55820;BME280;41747;45.002;39.032;2022-08-19T05:15:10;100331.38;;;33.30;45.54
55820;BME280;41747;45.002;39.032;2022-08-19T05:17:40;100327.75;;;33.46;45.12
55820;BME280;41747;45.002;39.032;2022-08-19T05:20:12;100322.34;;;34.24;43.90
55820;BME280;41747;45.002;39.032;2022-08-19T05:23:00;100321.83;;;34.86;42.28
55820;BME280;41747;45.002;39.032;2022-08-19T05:25:29;100327.47;;;35.09;41.60
55820;BME280;41747;45.002;39.032;2022-08-19T05:27:59;100348.74;;;35.58;40.77
55820;BME280;41747;45.002;39.032;2022-08-19T05:30:28;100353.89;;;36.07;39.94
55820;BME280;41747;45.002;39.032;2022-08-19T05:32:58;100350.64;;;36.34;38.83
55820;BME280;41747;45.002;39.032;2022-08-19T05:35:27;100355.64;;;36.45;38.48
55820;BME280;41747;45.002;39.032;2022-08-19T05:37:57;100349.50;;;36.43;38.02
55820;BME280;41747;45.002;39.032;2022-08-19T05:40:26;100344.95;;;36.54;37.70
55820;BME280;41747;45.002;39.032;2022-08-19T05:42:56;100344.47;;;37.15;36.93
55820;BME280;41747;45.002;39.032;2022-08-19T05:45:26;100343.81;;;38.30;35.10
55820;BME280;41747;45.002;39.032;2022-08-19T05:47:56;100340.52;;;39.21;33.63
55820;BME280;41747;45.002;39.032;2022-08-19T05:50:26;100337.59;;;39.75;32.83
55820;BME280;41747;45.002;39.032;2022-08-19T05:52:55;100344.39;;;40.20;32.20
55820;BME280;41747;45.002;39.032;2022-08-19T05:55:25;100353.83;;;40.55;31.25
55820;BME280;41747;45.002;39.032;2022-08-19T05:57:54;100360.83;;;40.45;31.29
55820;BME280;41747;45.002;39.032;2022-08-19T06:00:24;100361.67;;;40.33;31.06
55820;BME280;41747;45.002;39.032;2022-08-19T06:02:53;100368.88;;;40.37;31.12
55820;BME280;41747;45.002;39.032;2022-08-19T06:05:24;100364.83;;;39.95;31.50
55820;BME280;41747;45.002;39.032;2022-08-19T06:07:54;100363.42;;;40.20;31.21
55820;BME280;41747;45.002;39.032;2022-08-19T06:10:23;100361.75;;;40.74;30.21
55820;BME280;41747;45.002;39.032;2022-08-19T06:12:53;100358.08;;;40.86;29.51
55820;BME280;41747;45.002;39.032;2022-08-19T06:15:24;100365.83;;;41.01;29.21
55820;BME280;41747;45.002;39.032;2022-08-19T06:17:55;100364.72;;;41.46;28.71
55820;BME280;41747;45.002;39.032;2022-08-19T06:20:24;100361.77;;;42.35;27.59
55820;BME280;41747;45.002;39.032;2022-08-19T06:22:54;100364.84;;;42.97;27.06
55820;BME280;41747;45.002;39.032;2022-08-19T06:25:23;100376.25;;;43.07;27.06
55820;BME280;41747;45.002;39.032;2022-08-19T06:27:53;100369.93;;;43.46;26.63
55820;BME280;41747;45.002;39.032;2022-08-19T06:30:22;100382.48;;;43.12;26.72
55820;BME280;41747;45.002;39.032;2022-08-19T06:32:52;100388.50;;;42.14;27.72
55820;BME280;41747;45.002;39.032;2022-08-19T06:35:21;100385.46;;;41.69;28.31
55820;BME280;41747;45.002;39.032;2022-08-19T06:37:51;100397.25;;;41.27;28.70
55820;BME280;41747;45.002;39.032;2022-08-19T06:40:20;100405.86;;;40.53;29.22
55820;BME280;41747;45.002;39.032;2022-08-19T06:42:50;100401.21;;;40.05;29.93
55820;BME280;41747;45.002;39.032;2022-08-19T06:45:21;100397.02;;;39.84;30.03
55820;BME280;41747;45.002;39.032;2022-08-19T06:47:51;100406.94;;;40.48;29.17
55820;BME280;41747;45.002;39.032;2022-08-19T06:50:23;100409.77;;;40.85;28.67
55820;BME280;41747;45.002;39.032;2022-08-19T06:52:53;100396.37;;;41.33;28.17
55820;BME280;41747;45.002;39.032;2022-08-19T06:55:22;100390.43;;;41.88;27.44
55820;BME280;41747;45.002;39.032;2022-08-19T06:57:52;100386.66;;;42.22;27.04
55820;BME280;41747;45.002;39.032;2022-08-19T07:00:21;100389.28;;;43.08;26.08
55820;BME280;41747;45.002;39.032;2022-08-19T07:02:53;100391.16;;;43.91;25.14
55820;BME280;41747;45.002;39.032;2022-08-19T07:05:23;100394.55;;;44.56;24.32
55820;BME280;41747;45.002;39.032;2022-08-19T07:07:52;100408.19;;;44.70;24.01
55820;BME280;41747;45.002;39.032;2022-08-19T07:10:22;100406.48;;;45.06;23.77
55820;BME280;41747;45.002;39.032;2022-08-19T07:12:51;100408.82;;;46.02;22.56
55820;BME280;41747;45.002;39.032;2022-08-19T07:15:21;100397.76;;;46.76;21.62
55820;BME280;41747;45.002;39.032;2022-08-19T07:17:51;100396.20;;;48.02;20.29
55820;BME280;41747;45.002;39.032;2022-08-19T07:20:20;100392.95;;;49.13;19.03
55820;BME280;41747;45.002;39.032;2022-08-19T07:22:50;100398.95;;;50.14;18.04
55820;BME280;41747;45.002;39.032;2022-08-19T07:25:19;100398.70;;;50.39;17.72
55820;BME280;41747;45.002;39.032;2022-08-19T07:27:50;100402.74;;;50.68;17.50
55820;BME280;41747;45.002;39.032;2022-08-19T07:30:19;100406.52;;;49.90;17.97
55820;BME280;41747;45.002;39.032;2022-08-19T07:32:50;100399.17;;;49.48;18.40
55820;BME280;41747;45.002;39.032;2022-08-19T07:35:20;100401.52;;;49.98;17.83
55820;BME280;41747;45.002;39.032;2022-08-19T07:37:49;100394.20;;;50.76;17.27
55820;BME280;41747;45.002;39.032;2022-08-19T07:40:21;100397.20;;;51.03;17.23
55820;BME280;41747;45.002;39.032;2022-08-19T07:42:50;100409.42;;;50.61;17.58
55820;BME280;41747;45.002;39.032;2022-08-19T07:45:19;100398.34;;;50.94;17.28
55820;BME280;41747;45.002;39.032;2022-08-19T07:47:53;100397.61;;;51.36;16.63
55820;BME280;41747;45.002;39.032;2022-08-19T07:50:23;100400.00;;;51.99;16.10
55820;BME280;41747;45.002;39.032;2022-08-19T07:52:52;100396.36;;;52.07;15.99
55820;BME280;41747;45.002;39.032;2022-08-19T07:55:24;100398.11;;;52.36;15.82
55820;BME280;41747;45.002;39.032;2022-08-19T07:57:53;100394.45;;;50.93;16.94
55820;BME280;41747;45.002;39.032;2022-08-19T08:00:23;100395.00;;;50.80;17.05
55820;BME280;41747;45.002;39.032;2022-08-19T08:02:53;100391.03;;;51.36;16.58
55820;BME280;41747;45.002;39.032;2022-08-19T08:05:23;100395.02;;;50.16;17.28
55820;BME280;41747;45.002;39.032;2022-08-19T08:08:11;100395.05;;;49.83;17.64
55820;BME280;41747;45.002;39.032;2022-08-19T08:10:59;100398.00;;;49.31;18.08
55820;BME280;41747;45.002;39.032;2022-08-19T08:13:29;100393.31;;;48.13;19.17
55820;BME280;41747;45.002;39.032;2022-08-19T08:15:58;100393.00;;;46.98;20.18
55820;BME280;41747;45.002;39.032;2022-08-19T08:18:28;100397.70;;;45.72;21.66
55820;BME280;41747;45.002;39.032;2022-08-19T08:20:58;100392.27;;;44.83;22.59
55820;BME280;41747;45.002;39.032;2022-08-19T08:23:27;100392.52;;;44.87;22.77
55820;BME280;41747;45.002;39.032;2022-08-19T08:25:58;100390.71;;;44.89;22.84
55820;BME280;41747;45.002;39.032;2022-08-19T08:28:28;100407.33;;;44.66;23.13
55820;BME280;41747;45.002;39.032;2022-08-19T08:31:00;100406.09;;;43.61;24.53
55820;BME280;41747;45.002;39.032;2022-08-19T08:33:31;100393.95;;;42.80;25.54
55820;BME280;41747;45.002;39.032;2022-08-19T08:36:03;100384.14;;;42.11;26.37
55820;BME280;41747;45.002;39.032;2022-08-19T08:38:33;100392.64;;;41.16;27.54
55820;BME280;41747;45.002;39.032;2022-08-19T08:41:07;100386.11;;;40.20;28.74
55820;BME280;41747;45.002;39.032;2022-08-19T08:43:37;100383.18;;;39.70;29.54
55820;BME280;41747;45.002;39.032;2022-08-19T08:46:15;100382.33;;;39.64;29.80
55820;BME280;41747;45.002;39.032;2022-08-19T08:48:54;100377.27;;;39.36;30.35
55820;BME280;41747;45.002;39.032;2022-08-19T08:51:20;100371.45;;;38.69;31.16
55820;BME280;41747;45.002;39.032;2022-08-19T08:53:53;100373.97;;;37.61;32.45
55820;BME280;41747;45.002;39.032;2022-08-19T08:56:23;100371.15;;;36.54;34.08
55820;BME280;41747;45.002;39.032;2022-08-19T08:59:12;100364.33;;;35.98;35.20
55820;BME280;41747;45.002;39.032;2022-08-19T09:01:40;100351.97;;;35.96;35.27
55820;BME280;41747;45.002;39.032;2022-08-19T09:04:11;100341.51;;;36.28;34.74
55820;BME280;41747;45.002;39.032;2022-08-19T09:07:02;100344.16;;;36.33;34.62
55820;BME280;41747;45.002;39.032;2022-08-19T09:12:34;100333.61;;;36.27;34.38
55820;BME280;41747;45.002;39.032;2022-08-19T09:15:09;100341.56;;;36.05;34.78
55820;BME280;41747;45.002;39.032;2022-08-19T09:17:39;100346.70;;;36.03;34.58
55820;BME280;41747;45.002;39.032;2022-08-19T09:20:14;100335.50;;;35.81;35.00
55820;BME280;41747;45.002;39.032;2022-08-19T09:22:44;100337.12;;;35.62;35.23
55820;BME280;41747;45.002;39.032;2022-08-19T09:25:16;100329.89;;;35.02;35.71
55820;BME280;41747;45.002;39.032;2022-08-19T09:27:45;100329.17;;;34.46;36.44
55820;BME280;41747;45.002;39.032;2022-08-19T09:30:17;100335.06;;;34.33;36.23
55820;BME280;41747;45.002;39.032;2022-08-19T09:32:47;100347.16;;;34.20;36.16
55820;BME280;41747;45.002;39.032;2022-08-19T09:35:17;100359.19;;;34.06;36.36
55820;BME280;41747;45.002;39.032;2022-08-19T09:37:46;100357.54;;;33.58;37.32
55820;BME280;41747;45.002;39.032;2022-08-19T09:40:17;100353.37;;;33.23;38.00
55820;BME280;41747;45.002;39.032;2022-08-19T09:42:47;100352.66;;;32.77;38.94
55820;BME280;41747;45.002;39.032;2022-08-19T09:45:19;100346.83;;;32.52;39.46
55820;BME280;41747;45.002;39.032;2022-08-19T09:47:51;100349.30;;;32.53;39.71
55820;BME280;41747;45.002;39.032;2022-08-19T09:50:23;100346.78;;;32.54;39.74
55820;BME280;41747;45.002;39.032;2022-08-19T09:52:53;100350.28;;;32.43;39.78
55820;BME280;41747;45.002;39.032;2022-08-19T09:55:22;100351.25;;;32.34;39.70
55820;BME280;41747;45.002;39.032;2022-08-19T09:57:53;100358.16;;;32.20;39.93
55820;BME280;41747;45.002;39.032;2022-08-19T10:00:22;100361.38;;;32.08;40.04
55820;BME280;41747;45.002;39.032;2022-08-19T10:02:52;100352.76;;;31.99;39.77
55820;BME280;41747;45.002;39.032;2022-08-19T10:05:21;100352.76;;;31.99;39.87
55820;BME280;41747;45.002;39.032;2022-08-19T10:08:09;100359.03;;;32.15;39.87
55820;BME280;41747;45.002;39.032;2022-08-19T10:10:43;100363.91;;;32.29;39.76
55820;BME280;41747;45.002;39.032;2022-08-19T10:13:14;100360.33;;;32.25;39.92
55820;BME280;41747;45.002;39.032;2022-08-19T10:15:44;100350.58;;;32.20;40.10
55820;BME280;41747;45.002;39.032;2022-08-19T10:18:14;100358.10;;;32.25;40.20
55820;BME280;41747;45.002;39.032;2022-08-19T10:20:47;100366.91;;;32.13;40.85
55820;BME280;41747;45.002;39.032;2022-08-19T10:23:17;100368.00;;;31.88;41.62
55820;BME280;41747;45.002;39.032;2022-08-19T10:25:46;100363.58;;;31.55;42.58
55820;BME280;41747;45.002;39.032;2022-08-19T10:28:16;100337.25;;;31.22;43.23
55820;BME280;41747;45.002;39.032;2022-08-19T10:30:46;100350.69;;;31.17;43.36
55820;BME280;41747;45.002;39.032;2022-08-19T10:33:15;100352.95;;;31.15;43.26
55820;BME280;41747;45.002;39.032;2022-08-19T10:35:45;100359.14;;;31.12;43.01
55820;BME280;41747;45.002;39.032;2022-08-19T10:38:14;100363.19;;;30.90;43.33
55820;BME280;41747;45.002;39.032;2022-08-19T10:40:44;100357.36;;;30.79;43.21
55820;BME280;41747;45.002;39.032;2022-08-19T10:43:13;100365.47;;;30.83;43.72
55820;BME280;41747;45.002;39.032;2022-08-19T10:45:42;100363.73;;;30.95;43.55
55820;BME280;41747;45.002;39.032;2022-08-19T10:48:12;100368.98;;;31.04;43.86
55820;BME280;41747;45.002;39.032;2022-08-19T10:50:42;100374.15;;;31.24;43.16
55820;BME280;41747;45.002;39.032;2022-08-19T10:53:29;100367.95;;;31.29;42.94
55820;BME280;41747;45.002;39.032;2022-08-19T10:55:58;100373.77;;;31.36;42.91
55820;BME280;41747;45.002;39.032;2022-08-19T10:58:45;100379.30;;;31.43;42.99
55820;BME280;41747;45.002;39.032;2022-08-19T11:01:16;100387.36;;;31.55;42.96
55820;BME280;41747;45.002;39.032;2022-08-19T11:03:45;100387.25;;;31.65;42.89
55820;BME280;41747;45.002;39.032;2022-08-19T11:06:15;100374.87;;;31.74;42.65
55820;BME280;41747;45.002;39.032;2022-08-19T11:11:34;100379.32;;;31.75;43.00
55820;BME280;41747;45.002;39.032;2022-08-19T11:14:06;100378.91;;;31.87;42.53
55820;BME280;41747;45.002;39.032;2022-08-19T11:16:36;100386.36;;;31.99;41.99
55820;BME280;41747;45.002;39.032;2022-08-19T11:19:08;100387.98;;;32.08;42.01
55820;BME280;41747;45.002;39.032;2022-08-19T11:21:43;100375.06;;;32.10;41.63
55820;BME280;41747;45.002;39.032;2022-08-19T11:24:15;100379.81;;;31.82;41.09
55820;BME280;41747;45.002;39.032;2022-08-19T11:26:45;100368.34;;;31.52;41.22
55820;BME280;41747;45.002;39.032;2022-08-19T11:29:19;100371.15;;;31.52;41.29
55820;BME280;41747;45.002;39.032;2022-08-19T11:31:49;100371.44;;;31.45;41.28
55820;BME280;41747;45.002;39.032;2022-08-19T11:34:21;100360.86;;;31.42;41.06
55820;BME280;41747;45.002;39.032;2022-08-19T11:36:51;100357.20;;;31.47;40.95
55820;BME280;41747;45.002;39.032;2022-08-19T11:39:22;100349.34;;;31.52;41.13
55820;BME280;41747;45.002;39.032;2022-08-19T11:41:52;100348.41;;;31.59;41.19
55820;BME280;41747;45.002;39.032;2022-08-19T11:44:21;100341.98;;;31.61;41.07
55820;BME280;41747;45.002;39.032;2022-08-19T11:46:51;100346.83;;;31.50;41.21
55820;BME280;41747;45.002;39.032;2022-08-19T11:49:21;100345.42;;;31.16;41.73
55820;BME280;41747;45.002;39.032;2022-08-19T11:51:50;100332.41;;;30.96;42.30
55820;BME280;41747;45.002;39.032;2022-08-19T11:54:21;100340.26;;;30.94;42.21
55820;BME280;41747;45.002;39.032;2022-08-19T11:56:51;100343.08;;;30.86;42.31
55820;BME280;41747;45.002;39.032;2022-08-19T11:59:20;100338.60;;;30.87;42.49
55820;BME280;41747;45.002;39.032;2022-08-19T12:01:49;100334.36;;;31.00;42.37
55820;BME280;41747;45.002;39.032;2022-08-19T12:04:19;100331.98;;;31.15;41.85
55820;BME280;41747;45.002;39.032;2022-08-19T12:06:50;100324.06;;;31.27;41.59
55820;BME280;41747;45.002;39.032;2022-08-19T12:09:19;100330.88;;;31.45;41.45
55820;BME280;41747;45.002;39.032;2022-08-19T12:11:50;100336.34;;;31.63;41.07
55820;BME280;41747;45.002;39.032;2022-08-19T12:14:19;100337.54;;;31.81;40.39
55820;BME280;41747;45.002;39.032;2022-08-19T12:16:49;100333.20;;;31.97;39.95
55820;BME280;41747;45.002;39.032;2022-08-19T12:19:18;100330.83;;;32.09;39.64
55820;BME280;41747;45.002;39.032;2022-08-19T12:21:47;100322.00;;;31.97;39.38
55820;BME280;41747;45.002;39.032;2022-08-19T12:24:17;100323.74;;;31.90;39.45
55820;BME280;41747;45.002;39.032;2022-08-19T12:26:49;100313.85;;;31.98;39.34
55820;BME280;41747;45.002;39.032;2022-08-19T12:29:19;100320.27;;;32.01;39.20
55820;BME280;41747;45.002;39.032;2022-08-19T12:31:49;100313.37;;;31.91;39.51
55820;BME280;41747;45.002;39.032;2022-08-19T12:34:18;100322.63;;;31.89;39.62
55820;BME280;41747;45.002;39.032;2022-08-19T12:36:48;100319.73;;;31.99;39.46
55820;BME280;41747;45.002;39.032;2022-08-19T12:39:17;100310.89;;;32.13;39.43
55820;BME280;41747;45.002;39.032;2022-08-19T12:41:47;100302.92;;;32.23;39.52
55820;BME280;41747;45.002;39.032;2022-08-19T12:44:17;100313.64;;;32.18;38.88
55820;BME280;41747;45.002;39.032;2022-08-19T12:46:47;100301.63;;;32.15;39.00
55820;BME280;41747;45.002;39.032;2022-08-19T12:49:20;100304.56;;;32.27;38.91
55820;BME280;41747;45.002;39.032;2022-08-19T12:51:50;100302.88;;;32.47;38.71
55820;BME280;41747;45.002;39.032;2022-08-19T12:54:20;100299.02;;;32.64;38.15
55820;BME280;41747;45.002;39.032;2022-08-19T12:56:49;100304.32;;;32.66;37.80
55820;BME280;41747;45.002;39.032;2022-08-19T12:59:19;100293.24;;;32.56;37.94
55820;BME280;41747;45.002;39.032;2022-08-19T13:01:49;100296.48;;;32.66;38.18
55820;BME280;41747;45.002;39.032;2022-08-19T13:04:18;100297.60;;;32.83;37.82